Time;durP1;ratioP1;P1;durP2;ratioP2;P2;SDS_P1;SDS_P2;PMS_P1;PMS_P2;Temp;Humidity;BMP_temperature;BMP_pressure;BME280_temperature;BME280_humidity;BME280_pressure;Samples;Min_cycle;Max_cycle;Signal;HPM_P1;HPM_P2
2021/01/07 00:00:13;;;;;;;;;;;12.50;56.50;;;;;;2126534;27;19923;-75
2021/01/07 00:01:14;;;;;;;;;;;12.50;56.50;;;;;;2125696;28;19923;-74
2021/01/07 00:02:16;;;;;;;;;;;12.40;54.90;;;;;;2124472;27;19946;-75
2021/01/07 00:03:17;;;;;;;;;;;12.30;56.60;;;;;;2125522;27;19923;-75
2021/01/07 00:04:19;;;;;;;;;;;12.30;55.30;;;;;;2125217;28;19927;-76
2021/01/07 00:05:20;;;;;;;;;;;12.20;57.00;;;;;;2125132;27;19931;-75
2021/01/07 00:06:22;;;;;;;;;;;12.20;55.60;;;;;;2124460;28;20315;-75
2021/01/07 00:07:24;;;;;;;;;;;12.10;56.00;;;;;;2122214;28;19995;-76
2021/01/07 00:08:25;;;;;;;;;;;12.10;57.10;;;;;;2115967;28;19930;-75
2021/01/07 00:09:26;;;;;;;;;;;12.10;56.70;;;;;;2115685;28;19942;-75
2021/01/07 00:10:28;;;;;;;;;;;12.00;55.30;;;;;;2116171;28;19930;-74
2021/01/07 00:11:30;;;;;;;;;;;12.00;56.60;;;;;;2115600;28;21142;-78
2021/01/07 00:12:32;;;;;;;;;;;12.10;57.50;;;;;;2115627;28;20307;-75
2021/01/07 00:13:33;;;;;;;;;;;12.10;57.20;;;;;;2115823;28;19942;-75
2021/01/07 00:14:35;;;;;;;;;;;12.10;55.20;;;;;;2114844;28;19934;-76
2021/01/07 00:15:36;;;;;;;;;;;12.00;57.30;;;;;;2115656;28;19924;-76
2021/01/07 00:16:38;;;;;;;;;;;12.00;56.90;;;;;;2124254;28;19950;-76
2021/01/07 00:17:40;;;;;;;;;;;12.10;57.10;;;;;;2124457;28;19923;-78
2021/01/07 00:18:41;;;;;;;;;;;12.20;57.20;;;;;;2114661;28;19924;-76
2021/01/07 00:19:43;;;;;;;;;;;12.20;56.70;;;;;;2114688;28;19932;-75
2021/01/07 00:20:45;;;;;;;;;;;12.30;57.20;;;;;;2123280;28;19962;-74
2021/01/07 00:21:47;;;;;;;;;;;12.30;56.50;;;;;;2123443;27;20393;-76
2021/01/07 00:22:49;;;;;;;;;;;12.40;56.50;;;;;;2123290;27;19999;-76
2021/01/07 00:23:50;;;;;;;;;;;12.30;56.20;;;;;;2123700;28;19923;-75
2021/01/07 00:24:52;;;;;;;;;;;12.20;56.50;;;;;;2123694;28;20406;-76
2021/01/07 00:25:54;;;;;;;;;;;12.20;57.20;;;;;;2123814;28;19935;-76
2021/01/07 00:26:57;;;;;;;;;;;12.20;56.50;;;;;;2124141;27;20192;-75
2021/01/07 00:27:58;;;;;;;;;;;12.30;57.10;;;;;;2123803;28;19923;-76
2021/01/07 00:29:02;;;;;;;;;;;12.30;56.40;;;;;;2123808;27;20325;-75
2021/01/07 00:30:05;;;;;;;;;;;12.30;56.60;;;;;;2123796;27;20287;-75
2021/01/07 00:31:06;;;;;;;;;;;12.20;56.70;;;;;;2123964;27;19924;-76
2021/01/07 00:32:07;;;;;;;;;;;12.30;56.90;;;;;;2124044;28;19923;-76
2021/01/07 00:33:09;;;;;;;;;;;12.30;56.70;;;;;;2123707;27;19923;-76
2021/01/07 00:34:12;;;;;;;;;;;12.30;56.90;;;;;;2123836;28;19924;-76
2021/01/07 00:35:13;;;;;;;;;;;12.40;56.90;;;;;;2117532;28;19938;-76
2021/01/07 00:36:16;;;;;;;;;;;12.40;56.60;;;;;;2115016;28;19947;-75
2021/01/07 00:37:21;;;;;;;;;;;12.40;56.60;;;;;;2115517;28;20284;-76
2021/01/07 00:38:22;;;;;;;;;;;12.40;56.60;;;;;;2115559;28;19924;-75
2021/01/07 00:39:25;;;;;;;;;;;12.40;56.60;;;;;;2115674;28;19927;-77
2021/01/07 00:40:26;;;;;;;;;;;12.40;56.40;;;;;;2115190;28;20287;-75
2021/01/07 00:41:28;;;;;;;;;;;12.40;56.50;;;;;;2114711;28;19931;-75
2021/01/07 00:42:29;;;;;;;;;;;12.40;56.70;;;;;;2114421;28;19924;-75
2021/01/07 00:43:31;;;;;;;;;;;12.40;56.50;;;;;;2114546;28;20504;-76
2021/01/07 00:44:33;;;;;;;;;;;12.40;56.50;;;;;;2114919;28;19924;-76
2021/01/07 00:45:34;;;;;;;;;;;12.40;56.40;;;;;;2115467;28;19931;-74
2021/01/07 00:46:35;;;;;;;;;;;12.40;56.50;;;;;;2114938;28;19927;-76
2021/01/07 00:47:37;;;;;;;;;;;12.40;56.90;;;;;;2115131;28;20380;-75
2021/01/07 00:48:39;;;;;;;;;;;12.40;56.60;;;;;;2114927;28;19927;-74
2021/01/07 00:49:44;;;;;;;;;;;12.40;56.50;;;;;;2114905;28;20383;-75
2021/01/07 00:50:45;;;;;;;;;;;12.40;56.50;;;;;;2114693;28;19924;-75
2021/01/07 00:51:47;;;;;;;;;;;12.40;56.70;;;;;;2113903;28;19924;-76
2021/01/07 00:52:50;;;;;;;;;;;12.50;56.80;;;;;;2114216;28;19931;-77
2021/01/07 00:53:51;;;;;;;;;;;12.50;56.50;;;;;;2113932;28;20351;-76
2021/01/07 00:54:53;;;;;;;;;;;12.50;56.30;;;;;;2114018;28;20200;-74
2021/01/07 00:55:54;;;;;;;;;;;12.40;56.60;;;;;;2114143;28;19923;-76
2021/01/07 00:56:56;;;;;;;;;;;12.40;56.70;;;;;;2113762;28;19927;-76
2021/01/07 00:57:57;;;;;;;;;;;12.40;56.60;;;;;;2114079;28;19924;-73
2021/01/07 00:58:59;;;;;;;;;;;12.40;56.50;;;;;;2106245;28;19959;-76
2021/01/07 01:00:00;;;;;;;;;;;12.40;56.60;;;;;;2114998;28;19958;-75
2021/01/07 01:01:02;;;;;;;;;;;11.20;55.90;;;;;;2116090;28;19935;-76
2021/01/07 01:02:04;;;;;;;;;;;12.40;56.50;;;;;;2117501;28;20291;-76
2021/01/07 01:03:06;;;;;;;;;;;12.40;56.60;;;;;;2117611;28;19945;-76
2021/01/07 01:04:07;;;;;;;;;;;12.40;56.70;;;;;;2117796;28;19930;-76
2021/01/07 01:05:10;;;;;;;;;;;12.40;56.80;;;;;;2118046;28;19942;-77
2021/01/07 01:06:11;;;;;;;;;;;12.50;56.40;;;;;;2117864;28;19967;-76
2021/01/07 01:07:13;;;;;;;;;;;12.50;56.50;;;;;;2116921;28;19930;-76
2021/01/07 01:08:16;;;;;;;;;;;12.50;56.50;;;;;;2117089;28;19931;-76
2021/01/07 01:09:18;;;;;;;;;;;12.40;56.60;;;;;;2117707;28;19924;-77
2021/01/07 01:10:19;;;;;;;;;;;12.50;56.50;;;;;;2117024;28;19923;-77
2021/01/07 01:11:20;;;;;;;;;;;12.40;56.60;;;;;;2116311;28;19931;-76
2021/01/07 01:12:22;;;;;;;;;;;12.50;56.70;;;;;;2117360;28;19931;-74
2021/01/07 01:13:23;;;;;;;;;;;12.40;56.60;;;;;;2116597;28;20413;-76
2021/01/07 01:14:25;;;;;;;;;;;12.40;56.60;;;;;;2116519;28;19998;-76
2021/01/07 01:15:26;;;;;;;;;;;12.40;56.60;;;;;;2115545;28;19931;-76
2021/01/07 01:16:30;;;;;;;;;;;12.40;56.60;;;;;;2116671;28;19923;-76
2021/01/07 01:17:32;;;;;;;;;;;12.30;55.80;;;;;;2116416;28;19924;-75
2021/01/07 01:18:34;;;;;;;;;;;12.30;56.60;;;;;;2115941;28;19934;-76
2021/01/07 01:19:35;;;;;;;;;;;12.30;56.70;;;;;;2117438;28;19931;-76
2021/01/07 01:20:38;;;;;;;;;;;12.20;56.40;;;;;;2116304;28;19924;-76
2021/01/07 01:21:42;;;;;;;;;;;12.20;57.10;;;;;;2116235;28;19953;-74
2021/01/07 01:22:44;;;;;;;;;;;12.20;57.00;;;;;;2116822;28;19924;-77
2021/01/07 01:23:47;;;;;;;;;;;12.30;57.00;;;;;;2116842;28;20360;-76
2021/01/07 01:24:48;;;;;;;;;;;12.30;56.90;;;;;;2116777;28;19923;-76
2021/01/07 01:25:50;;;;;;;;;;;12.20;56.80;;;;;;2116628;28;19924;-75
2021/01/07 01:26:55;;;;;;;;;;;12.20;56.90;;;;;;2116960;28;19951;-75
2021/01/07 01:27:56;;;;;;;;;;;12.20;57.20;;;;;;2116828;28;19924;-76
2021/01/07 01:28:58;;;;;;;;;;;12.20;56.90;;;;;;2116804;28;19924;-74
2021/01/07 01:30:00;;;;;;;;;;;12.20;57.10;;;;;;2116921;28;19924;-76
2021/01/07 01:31:01;;;;;;;;;;;12.20;57.00;;;;;;2116272;28;19949;-75
2021/01/07 01:32:03;;;;;;;;;;;12.30;56.60;;;;;;2116260;28;19927;-75
2021/01/07 01:33:06;;;;;;;;;;;12.20;56.90;;;;;;2117081;28;19996;-76
2021/01/07 01:34:07;;;;;;;;;;;12.20;57.00;;;;;;2117257;28;19931;-76
2021/01/07 01:35:09;;;;;;;;;;;12.20;55.80;;;;;;2116723;28;19976;-75
2021/01/07 01:36:11;;;;;;;;;;;12.10;56.70;;;;;;2116865;28;19943;-76
2021/01/07 01:37:16;;;;;;;;;;;12.10;57.20;;;;;;2115895;28;19931;-75
2021/01/07 01:38:17;;;;;;;;;;;12.10;57.00;;;;;;2116694;28;19924;-75
2021/01/07 01:39:20;;;;;;;;;;;12.10;57.10;;;;;;2117223;28;19924;-76
2021/01/07 01:40:24;;;;;;;;;;;12.10;56.70;;;;;;2116693;28;19974;-76
2021/01/07 01:41:26;;;;;;;;;;;12.00;57.00;;;;;;2116583;28;19924;-75
2021/01/07 01:42:29;;;;;;;;;;;12.10;57.00;;;;;;2116894;28;19962;-75
2021/01/07 01:43:32;;;;;;;;;;;12.00;57.10;;;;;;2116961;28;19924;-75
2021/01/07 01:44:34;;;;;;;;;;;12.00;57.30;;;;;;2117810;28;19962;-75
2021/01/07 01:45:38;;;;;;;;;;;12.10;56.90;;;;;;2116839;28;20019;-76
2021/01/07 01:46:41;;;;;;;;;;;12.00;57.40;;;;;;2117068;28;19967;-75
2021/01/07 01:47:43;;;;;;;;;;;12.00;57.30;;;;;;2116857;28;20048;-76
2021/01/07 01:48:46;;;;;;;;;;;12.10;57.40;;;;;;2116893;28;19928;-76
2021/01/07 01:49:52;;;;;;;;;;;12.10;57.50;;;;;;2116403;28;19923;-75
2021/01/07 01:50:54;;;;;;;;;;;12.10;57.30;;;;;;2117736;28;19928;-75
2021/01/07 01:52:01;;;;;;;;;;;12.10;57.30;;;;;;2116564;28;19931;-79
2021/01/07 01:53:05;;;;;;;;;;;12.20;57.40;;;;;;2109485;28;19953;-76
2021/01/07 01:54:07;;;;;;;;;;;11.90;56.70;;;;;;2116690;28;19931;-77
2021/01/07 01:55:11;;;;;;;;;;;11.80;57.70;;;;;;2117248;28;19959;-76
2021/01/07 01:56:15;;;;;;;;;;;11.90;58.00;;;;;;2117237;28;20007;-76
2021/01/07 01:57:17;;;;;;;;;;;12.00;57.80;;;;;;2120532;27;19931;-76
2021/01/07 01:58:20;;;;;;;;;;;12.00;57.90;;;;;;2125806;27;19923;-77
2021/01/07 01:59:24;;;;;;;;;;;12.10;57.60;;;;;;2116457;28;19924;-75
2021/01/07 02:00:35;;;;;;;;;;;12.10;57.50;;;;;;2118724;27;19924;-76
2021/01/07 02:01:36;;;;;;;;;;;12.10;57.10;;;;;;2116341;28;20304;-76
2021/01/07 02:02:37;;;;;;;;;;;12.10;57.10;;;;;;2116730;28;19924;-75
2021/01/07 02:03:41;;;;;;;;;;;12.10;56.80;;;;;;2125935;27;19966;-76
2021/01/07 02:04:43;;;;;;;;;;;12.20;57.00;;;;;;2126060;27;20089;-76
2021/01/07 02:05:47;;;;;;;;;;;12.20;57.00;;;;;;2125832;27;19945;-76
2021/01/07 02:06:49;;;;;;;;;;;12.10;56.80;;;;;;2126165;27;19923;-76
2021/01/07 02:07:53;;;;;;;;;;;12.20;56.80;;;;;;2120107;27;19928;-76
2021/01/07 02:08:57;;;;;;;;;;;12.20;56.90;;;;;;2117945;28;19924;-76
2021/01/07 02:10:01;;;;;;;;;;;12.20;56.90;;;;;;2117839;28;19927;-77
2021/01/07 02:11:03;;;;;;;;;;;12.20;56.90;;;;;;2117621;28;19931;-76
2021/01/07 02:12:07;;;;;;;;;;;12.10;56.70;;;;;;2106978;28;20292;-76
2021/01/07 02:13:08;;;;;;;;;;;12.20;56.70;;;;;;2100383;28;20385;-76
2021/01/07 02:14:10;;;;;;;;;;;12.20;57.10;;;;;;2108512;28;19954;-76
2021/01/07 02:15:14;;;;;;;;;;;12.30;56.30;;;;;;2108610;28;19924;-77
2021/01/07 02:16:18;;;;;;;;;;;12.20;56.30;;;;;;2114608;28;19924;-75
2021/01/07 02:17:20;;;;;;;;;;;12.20;56.90;;;;;;2117800;27;20396;-75
2021/01/07 02:18:22;;;;;;;;;;;12.20;56.50;;;;;;2126194;27;19954;-76
2021/01/07 02:19:23;;;;;;;;;;;12.30;56.50;;;;;;2116689;28;19935;-76
2021/01/07 02:20:28;;;;;;;;;;;12.30;57.00;;;;;;2116974;27;19924;-76
2021/01/07 02:21:36;;;;;;;;;;;12.30;57.00;;;;;;2117044;28;19946;-76
2021/01/07 02:22:41;;;;;;;;;;;12.40;56.90;;;;;;2118160;27;20198;-75
2021/01/07 02:23:59;;;;;;;;;;;12.40;56.60;;;;;;2126021;27;19923;-76
2021/01/07 02:25:01;;;;;;;;;;;12.40;56.60;;;;;;2125942;27;19930;-77
2021/01/07 02:26:02;;;;;;;;;;;12.40;56.50;;;;;;2126763;27;19927;-75
2021/01/07 02:27:06;;;;;;;;;;;12.40;56.30;;;;;;2117794;28;19939;-77
2021/01/07 02:28:08;;;;;;;;;;;12.50;56.50;;;;;;2119825;27;19923;-77
2021/01/07 02:29:12;;;;;;;;;;;12.50;56.40;;;;;;2128803;27;20493;-76
2021/01/07 02:30:13;;;;;;;;;;;12.60;56.10;;;;;;2129651;27;20268;-76
2021/01/07 02:31:15;;;;;;;;;;;12.50;55.50;;;;;;2128999;27;19930;-77
2021/01/07 02:32:19;;;;;;;;;;;12.60;56.00;;;;;;2130007;27;19924;-75
2021/01/07 02:33:20;;;;;;;;;;;12.60;56.20;;;;;;2120613;28;19923;-76
2021/01/07 02:34:22;;;;;;;;;;;12.60;55.80;;;;;;2120407;27;19924;-75
2021/01/07 02:35:23;;;;;;;;;;;12.50;55.60;;;;;;2121640;27;19924;-76
2021/01/07 02:36:30;;;;;;;;;;;12.50;55.50;;;;;;2119890;28;19931;-75
2021/01/07 02:37:32;;;;;;;;;;;12.40;54.70;;;;;;2119982;28;19934;-76
2021/01/07 02:38:34;;;;;;;;;;;12.40;56.30;;;;;;2119918;28;19951;-76
2021/01/07 02:39:35;;;;;;;;;;;12.40;56.30;;;;;;2119463;28;19935;-76
2021/01/07 02:40:37;;;;;;;;;;;12.50;56.30;;;;;;2127675;27;20311;-75
2021/01/07 02:41:38;;;;;;;;;;;12.50;56.30;;;;;;2127225;27;19930;-76
2021/01/07 02:42:40;;;;;;;;;;;12.40;55.90;;;;;;2125066;27;19931;-76
2021/01/07 02:43:41;;;;;;;;;;;12.40;55.70;;;;;;2119089;28;19924;-76
2021/01/07 02:44:43;;;;;;;;;;;12.30;55.20;;;;;;2111025;28;19928;-76
2021/01/07 02:45:46;;;;;;;;;;;12.30;55.30;;;;;;2109962;28;20440;-75
2021/01/07 02:46:48;;;;;;;;;;;12.40;56.30;;;;;;2118724;27;19955;-75
2021/01/07 02:47:51;;;;;;;;;;;12.40;56.30;;;;;;2127170;27;19924;-77
2021/01/07 02:48:53;;;;;;;;;;;12.40;56.00;;;;;;2118193;28;20375;-76
2021/01/07 02:49:55;;;;;;;;;;;12.40;56.00;;;;;;2117681;28;19924;-75
2021/01/07 02:50:56;;;;;;;;;;;12.40;55.90;;;;;;2118056;28;19934;-75
2021/01/07 02:51:59;;;;;;;;;;;12.40;56.10;;;;;;2118365;27;20403;-76
2021/01/07 02:53:03;;;;;;;;;;;12.40;55.50;;;;;;2124536;27;19988;-76
2021/01/07 02:54:04;;;;;;;;;;;12.30;56.10;;;;;;2126322;27;19927;-76
2021/01/07 02:55:09;;;;;;;;;;;12.30;55.80;;;;;;2127197;27;19923;-75
2021/01/07 02:56:12;;;;;;;;;;;12.30;56.70;;;;;;2126669;27;19930;-76
2021/01/07 02:57:13;;;;;;;;;;;12.40;56.30;;;;;;2126689;27;20077;-76
2021/01/07 02:58:15;;;;;;;;;;;12.30;55.40;;;;;;2127147;27;19923;-77
2021/01/07 02:59:17;;;;;;;;;;;12.30;55.70;;;;;;2127196;27;19930;-77
2021/01/07 03:00:21;;;;;;;;;;;12.30;56.20;;;;;;2117476;28;19924;-76
2021/01/07 03:01:23;;;;;;;;;;;12.30;55.80;;;;;;2118457;27;19924;-77
2021/01/07 03:02:24;;;;;;;;;;;12.30;56.20;;;;;;2126581;27;19927;-74
2021/01/07 03:03:26;;;;;;;;;;;12.40;56.50;;;;;;2126268;27;19931;-76
2021/01/07 03:04:27;;;;;;;;;;;12.40;55.80;;;;;;2126147;27;19931;-76
2021/01/07 03:05:29;;;;;;;;;;;12.30;55.70;;;;;;2117614;28;19923;-76
2021/01/07 03:06:30;;;;;;;;;;;12.30;56.20;;;;;;2117150;27;19931;-76
2021/01/07 03:07:35;;;;;;;;;;;12.30;55.90;;;;;;2126992;27;19923;-75
2021/01/07 03:08:36;;;;;;;;;;;12.30;56.00;;;;;;2117796;28;19924;-74
2021/01/07 03:09:38;;;;;;;;;;;12.30;56.00;;;;;;2117898;27;19924;-76
2021/01/07 03:10:39;;;;;;;;;;;12.30;56.10;;;;;;2126596;27;19930;-76
2021/01/07 03:11:40;;;;;;;;;;;12.30;56.30;;;;;;2126572;27;19924;-76
2021/01/07 03:12:42;;;;;;;;;;;12.40;56.30;;;;;;2127702;27;19931;-77
2021/01/07 03:13:46;;;;;;;;;;;12.40;56.00;;;;;;2118938;28;19923;-76
2021/01/07 03:14:48;;;;;;;;;;;12.50;56.10;;;;;;2119029;27;19946;-77
2021/01/07 03:15:49;;;;;;;;;;;12.50;55.90;;;;;;2125447;27;20115;-76
2021/01/07 03:16:51;;;;;;;;;;;12.50;55.90;;;;;;2118971;28;19924;-75
2021/01/07 03:17:52;;;;;;;;;;;12.50;55.80;;;;;;2119356;28;19932;-75
2021/01/07 03:18:56;;;;;;;;;;;12.60;55.90;;;;;;2118969;28;19924;-76
2021/01/07 03:19:58;;;;;;;;;;;12.50;55.50;;;;;;2119230;28;19924;-76
2021/01/07 03:20:59;;;;;;;;;;;12.50;55.50;;;;;;2110133;28;19936;-77
2021/01/07 03:22:04;;;;;;;;;;;12.60;55.80;;;;;;2110427;28;19924;-76
2021/01/07 03:23:07;;;;;;;;;;;12.60;55.60;;;;;;2119158;28;19923;-75
2021/01/07 03:24:09;;;;;;;;;;;12.60;54.90;;;;;;2118886;28;19930;-77
2021/01/07 03:25:12;;;;;;;;;;;12.50;55.30;;;;;;2119182;28;19924;-76
2021/01/07 03:26:15;;;;;;;;;;;12.50;55.60;;;;;;2118850;28;20292;-75
2021/01/07 03:27:20;;;;;;;;;;;12.50;55.70;;;;;;2118644;28;19928;-76
2021/01/07 03:28:22;;;;;;;;;;;12.50;55.80;;;;;;2117839;28;19963;-77
2021/01/07 03:29:23;;;;;;;;;;;12.60;55.40;;;;;;2117565;28;20386;-76
2021/01/07 03:30:25;;;;;;;;;;;12.50;54.90;;;;;;2117835;28;19924;-76
2021/01/07 03:31:26;;;;;;;;;;;12.50;55.10;;;;;;2118287;28;19931;-76
2021/01/07 03:32:28;;;;;;;;;;;12.50;55.60;;;;;;2108571;28;19924;-77
2021/01/07 03:33:33;;;;;;;;;;;12.50;55.10;;;;;;2109698;28;19933;-76
2021/01/07 03:34:34;;;;;;;;;;;12.50;55.30;;;;;;2118734;28;19927;-77
2021/01/07 03:35:35;;;;;;;;;;;12.40;55.00;;;;;;2118852;28;19924;-77
2021/01/07 03:36:37;;;;;;;;;;;12.40;55.00;;;;;;2109339;28;19925;-75
2021/01/07 03:37:38;;;;;;;;;;;12.40;55.20;;;;;;2109415;28;20420;-75
2021/01/07 03:38:41;;;;;;;;;;;12.30;55.00;;;;;;2109341;28;19925;-78
2021/01/07 03:39:42;;;;;;;;;;;12.30;55.20;;;;;;2109847;28;19924;-74
2021/01/07 03:40:46;;;;;;;;;;;12.30;55.40;;;;;;2118091;28;19924;-75
2021/01/07 03:41:48;;;;;;;;;;;12.30;55.10;;;;;;2109528;28;19935;-74
2021/01/07 03:42:49;;;;;;;;;;;12.20;55.20;;;;;;2109476;28;20296;-76
2021/01/07 03:43:51;;;;;;;;;;;12.20;55.40;;;;;;2118453;28;19932;-75
2021/01/07 03:44:52;;;;;;;;;;;12.20;55.60;;;;;;2118207;28;20379;-76
2021/01/07 03:45:54;;;;;;;;;;;12.20;55.60;;;;;;2117846;28;20317;-77
2021/01/07 03:46:56;;;;;;;;;;;12.20;55.30;;;;;;2116092;28;19924;-75
2021/01/07 03:47:58;;;;;;;;;;;12.20;55.80;;;;;;2116016;28;19924;-77
2021/01/07 03:48:59;;;;;;;;;;;12.10;54.80;;;;;;2115719;28;19931;-76
2021/01/07 03:50:04;;;;;;;;;;;12.10;55.60;;;;;;2115894;28;19964;-76
2021/01/07 03:51:05;;;;;;;;;;;12.10;55.70;;;;;;2115380;28;19930;-76
2021/01/07 03:52:08;;;;;;;;;;;12.00;55.60;;;;;;2115224;28;19958;-76
2021/01/07 03:53:09;;;;;;;;;;;12.10;56.30;;;;;;2115271;28;20010;-76
2021/01/07 03:54:12;;;;;;;;;;;12.10;55.90;;;;;;2115508;28;19924;-76
2021/01/07 03:55:13;;;;;;;;;;;12.00;55.90;;;;;;2115162;28;19924;-76
2021/01/07 03:56:15;;;;;;;;;;;12.00;56.20;;;;;;2115321;28;19942;-76
2021/01/07 03:57:16;;;;;;;;;;;12.00;56.00;;;;;;2114982;28;19924;-75
2021/01/07 03:58:17;;;;;;;;;;;12.00;56.00;;;;;;2114661;28;19947;-77
2021/01/07 03:59:19;;;;;;;;;;;12.00;56.00;;;;;;2115221;28;19934;-76
2021/01/07 04:00:20;;;;;;;;;;;12.00;56.00;;;;;;2115749;28;19931;-75
2021/01/07 04:01:22;;;;;;;;;;;11.90;56.20;;;;;;2115651;28;19927;-76
2021/01/07 04:02:23;;;;;;;;;;;11.90;56.60;;;;;;2115526;28;19930;-75
2021/01/07 04:03:25;;;;;;;;;;;11.90;56.10;;;;;;2115944;28;19928;-73
2021/01/07 04:04:26;;;;;;;;;;;11.80;56.20;;;;;;2116024;28;19930;-75
2021/01/07 04:05:28;;;;;;;;;;;11.90;56.40;;;;;;2114846;28;19923;-73
2021/01/07 04:06:30;;;;;;;;;;;11.80;56.20;;;;;;2107331;28;19924;-73
2021/01/07 04:07:31;;;;;;;;;;;11.80;56.80;;;;;;2106566;28;19996;-75
2021/01/07 04:08:32;;;;;;;;;;;11.90;55.20;;;;;;2115112;28;19930;-76
2021/01/07 04:09:35;;;;;;;;;;;11.60;57.10;;;;;;2114860;28;19935;-76
2021/01/07 04:10:36;;;;;;;;;;;11.70;57.00;;;;;;2114962;28;19943;-76
2021/01/07 04:11:38;;;;;;;;;;;11.70;57.10;;;;;;2115972;28;20002;-74
2021/01/07 04:12:39;;;;;;;;;;;11.70;57.20;;;;;;2115918;28;19931;-76
2021/01/07 04:13:41;;;;;;;;;;;11.80;57.50;;;;;;2115556;28;19924;-75
2021/01/07 04:14:42;;;;;;;;;;;11.80;57.30;;;;;;2115683;28;19931;-76
2021/01/07 04:15:44;;;;;;;;;;;11.80;56.90;;;;;;2117075;28;19924;-75
2021/01/07 04:16:45;;;;;;;;;;;11.90;57.00;;;;;;2124368;28;20006;-75
2021/01/07 04:17:48;;;;;;;;;;;11.80;56.10;;;;;;2124193;28;20315;-74
2021/01/07 04:18:50;;;;;;;;;;;11.80;57.20;;;;;;2124252;28;20379;-75
2021/01/07 04:19:51;;;;;;;;;;;11.90;57.10;;;;;;2123967;28;19930;-74
2021/01/07 04:20:53;;;;;;;;;;;12.00;56.70;;;;;;2123858;28;20396;-76
2021/01/07 04:21:54;;;;;;;;;;;12.00;56.90;;;;;;2115311;28;19939;-75
2021/01/07 04:22:56;;;;;;;;;;;12.00;56.80;;;;;;2123928;28;19931;-74
2021/01/07 04:23:57;;;;;;;;;;;12.00;56.70;;;;;;2123875;28;19924;-75
2021/01/07 04:25:00;;;;;;;;;;;12.00;56.40;;;;;;2123631;28;19924;-75
2021/01/07 04:26:01;;;;;;;;;;;12.00;56.30;;;;;;2123901;28;20284;-74
2021/01/07 04:27:03;;;;;;;;;;;12.00;56.40;;;;;;2123769;28;19927;-75
2021/01/07 04:28:04;;;;;;;;;;;12.00;56.20;;;;;;2124358;27;20284;-77
2021/01/07 04:29:06;;;;;;;;;;;12.00;56.50;;;;;;2124128;27;19934;-75
2021/01/07 04:30:08;;;;;;;;;;;12.00;56.10;;;;;;2123830;28;19924;-76
2021/01/07 04:31:09;;;;;;;;;;;12.00;55.70;;;;;;2123749;28;19955;-73
2021/01/07 04:32:11;;;;;;;;;;;12.00;56.10;;;;;;2123868;28;19958;-76
2021/01/07 04:33:12;;;;;;;;;;;11.90;56.10;;;;;;2122890;28;19923;-74
2021/01/07 04:34:14;;;;;;;;;;;12.00;56.80;;;;;;2122771;28;19923;-73
2021/01/07 04:35:15;;;;;;;;;;;12.00;56.80;;;;;;2117960;28;19928;-74
2021/01/07 04:36:17;;;;;;;;;;;12.00;56.50;;;;;;2116093;28;20322;-76
2021/01/07 04:37:18;;;;;;;;;;;12.10;56.50;;;;;;2117115;28;19924;-75
2021/01/07 04:38:19;;;;;;;;;;;12.00;56.10;;;;;;2116259;28;19924;-73
2021/01/07 04:39:21;;;;;;;;;;;12.00;55.80;;;;;;2116154;28;19971;-73
2021/01/07 04:40:26;;;;;;;;;;;12.00;55.80;;;;;;2116958;28;20005;-73
2021/01/07 04:41:27;;;;;;;;;;;12.00;56.80;;;;;;2117054;28;20486;-75
2021/01/07 04:42:28;;;;;;;;;;;12.00;56.60;;;;;;2116032;28;20379;-74
2021/01/07 04:43:30;;;;;;;;;;;12.10;56.70;;;;;;2116164;28;19950;-76
2021/01/07 04:44:32;;;;;;;;;;;12.10;56.60;;;;;;2118165;28;20360;-74
2021/01/07 04:45:33;;;;;;;;;;;12.20;56.30;;;;;;2118296;28;20473;-74
2021/01/07 04:46:35;;;;;;;;;;;12.20;56.10;;;;;;2118556;28;19923;-76
2021/01/07 04:47:40;;;;;;;;;;;12.20;56.10;;;;;;2119034;27;20277;-77
2021/01/07 04:48:42;;;;;;;;;;;12.20;56.00;;;;;;2119175;28;20356;-76
2021/01/07 04:49:43;;;;;;;;;;;12.20;56.00;;;;;;2118894;28;19924;-76
2021/01/07 04:50:46;;;;;;;;;;;12.10;55.80;;;;;;2119506;28;19923;-77
2021/01/07 04:51:47;;;;;;;;;;;12.00;55.80;;;;;;2119404;28;19952;-75
2021/01/07 04:52:49;;;;;;;;;;;12.00;56.20;;;;;;2118999;27;20015;-76
2021/01/07 04:53:51;;;;;;;;;;;12.10;56.60;;;;;;2119044;28;19930;-76
2021/01/07 04:54:53;;;;;;;;;;;12.10;56.10;;;;;;2118716;28;19943;-75
2021/01/07 04:55:55;;;;;;;;;;;12.10;56.30;;;;;;2118626;28;19924;-76
2021/01/07 04:56:57;;;;;;;;;;;12.20;56.20;;;;;;2118737;27;19924;-76
2021/01/07 04:57:59;;;;;;;;;;;12.20;55.30;;;;;;2117726;28;19975;-74
2021/01/07 04:59:00;;;;;;;;;;;12.10;55.50;;;;;;2118344;28;20489;-75
2021/01/07 05:00:03;;;;;;;;;;;12.10;56.20;;;;;;2118133;28;20085;-73
2021/01/07 05:01:05;;;;;;;;;;;12.20;56.30;;;;;;2118105;27;19924;-73
2021/01/07 05:02:06;;;;;;;;;;;12.30;56.10;;;;;;2128347;27;19923;-75
2021/01/07 05:03:08;;;;;;;;;;;12.30;55.80;;;;;;2129019;27;19927;-75
2021/01/07 05:04:09;;;;;;;;;;;12.30;54.90;;;;;;2128763;27;19923;-73
2021/01/07 05:05:11;;;;;;;;;;;12.30;55.60;;;;;;2120392;28;20423;-73
2021/01/07 05:06:13;;;;;;;;;;;12.30;55.80;;;;;;2120228;28;19924;-74
2021/01/07 05:07:18;;;;;;;;;;;12.40;55.80;;;;;;2129895;27;19935;-76
2021/01/07 05:08:22;;;;;;;;;;;12.40;55.70;;;;;;2130418;27;19930;-75
2021/01/07 05:09:23;;;;;;;;;;;12.50;55.00;;;;;;2130768;27;19923;-75
2021/01/07 05:10:26;;;;;;;;;;;12.40;55.50;;;;;;2121311;28;19935;-76
2021/01/07 05:11:29;;;;;;;;;;;12.50;55.20;;;;;;2121870;27;19970;-75
2021/01/07 05:12:31;;;;;;;;;;;12.50;55.00;;;;;;2129815;27;19924;-76
2021/01/07 05:13:32;;;;;;;;;;;12.40;55.00;;;;;;2120194;28;19928;-75
2021/01/07 05:14:40;;;;;;;;;;;12.50;55.40;;;;;;2120911;28;19990;-78
2021/01/07 05:15:41;;;;;;;;;;;12.50;55.40;;;;;;2128086;27;19935;-75
2021/01/07 05:16:42;;;;;;;;;;;12.50;55.20;;;;;;2121225;28;19924;-73
2021/01/07 05:17:45;;;;;;;;;;;12.50;55.10;;;;;;2120782;28;19924;-75
2021/01/07 05:18:48;;;;;;;;;;;12.60;55.10;;;;;;2121141;28;19958;-76
2021/01/07 05:19:54;;;;;;;;;;;12.60;54.90;;;;;;2120196;28;19924;-76
2021/01/07 05:20:56;;;;;;;;;;;12.60;55.40;;;;;;2120141;28;19924;-75
2021/01/07 05:21:57;;;;;;;;;;;12.70;54.70;;;;;;2120488;28;19931;-77
2021/01/07 05:23:00;;;;;;;;;;;12.60;54.40;;;;;;2121564;28;19931;-76
2021/01/07 05:24:02;;;;;;;;;;;12.60;54.50;;;;;;2121175;28;19924;-76
2021/01/07 05:25:09;;;;;;;;;;;12.60;54.60;;;;;;2121051;28;19935;-76
2021/01/07 05:26:11;;;;;;;;;;;12.60;54.70;;;;;;2121147;28;19924;-77
2021/01/07 05:27:15;;;;;;;;;;;12.60;54.70;;;;;;2121320;28;19930;-78
2021/01/07 05:28:17;;;;;;;;;;;12.70;54.90;;;;;;2121036;28;19945;-77
2021/01/07 05:29:18;;;;;;;;;;;12.60;54.20;;;;;;2121062;28;19924;-77
2021/01/07 05:30:22;;;;;;;;;;;12.60;54.30;;;;;;2121318;28;20284;-77
2021/01/07 05:31:24;;;;;;;;;;;12.60;54.60;;;;;;2121027;28;19935;-77
2021/01/07 05:32:33;;;;;;;;;;;12.60;54.60;;;;;;2120835;28;19931;-77
2021/01/07 05:33:37;;;;;;;;;;;12.60;54.70;;;;;;2112244;28;19950;-77
2021/01/07 05:34:47;;;;;;;;;;;12.60;54.80;;;;;;2112866;28;19931;-76
2021/01/07 05:35:48;;;;;;;;;;;12.60;54.40;;;;;;2121150;28;19942;-76
2021/01/07 05:36:55;;;;;;;;;;;12.60;55.20;;;;;;2111860;28;19924;-78
2021/01/07 05:37:58;;;;;;;;;;;12.60;54.60;;;;;;2112697;28;19928;-77
2021/01/07 05:39:01;;;;;;;;;;;12.60;54.90;;;;;;2121130;28;19923;-77
2021/01/07 05:40:04;;;;;;;;;;;12.50;54.40;;;;;;2119643;28;19927;-77
2021/01/07 05:41:11;;;;;;;;;;;12.50;54.90;;;;;;2111193;28;19990;-76
2021/01/07 05:42:15;;;;;;;;;;;12.50;54.90;;;;;;2113695;27;19924;-76
2021/01/07 05:43:17;;;;;;;;;;;12.50;55.10;;;;;;2117853;28;19924;-76
2021/01/07 05:44:21;;;;;;;;;;;12.50;54.40;;;;;;2118171;28;19947;-77
2021/01/07 05:45:22;;;;;;;;;;;12.50;54.60;;;;;;2127839;27;19935;-76
2021/01/07 05:46:24;;;;;;;;;;;12.50;54.50;;;;;;2118738;28;19924;-76
2021/01/07 05:47:28;;;;;;;;;;;12.50;54.80;;;;;;2117251;28;19928;-76
2021/01/07 05:48:30;;;;;;;;;;;12.50;54.90;;;;;;2127670;27;20300;-75
2021/01/07 05:49:35;;;;;;;;;;;12.50;54.90;;;;;;2127745;27;19924;-74
2021/01/07 05:50:38;;;;;;;;;;;12.50;54.80;;;;;;2118454;28;19923;-77
2021/01/07 05:51:42;;;;;;;;;;;12.60;54.90;;;;;;2118405;28;19924;-75
2021/01/07 05:52:44;;;;;;;;;;;12.60;54.90;;;;;;2127679;27;19968;-76
2021/01/07 05:53:46;;;;;;;;;;;12.60;54.80;;;;;;2118774;28;19987;-76
2021/01/07 05:54:48;;;;;;;;;;;12.60;54.50;;;;;;2118669;28;19991;-76
2021/01/07 05:55:50;;;;;;;;;;;12.70;54.70;;;;;;2118451;28;19931;-76
2021/01/07 05:56:53;;;;;;;;;;;12.70;54.40;;;;;;2118639;28;19946;-75
2021/01/07 05:57:58;;;;;;;;;;;12.70;54.60;;;;;;2127800;27;19923;-77
2021/01/07 05:59:00;;;;;;;;;;;12.70;54.50;;;;;;2117992;28;19931;-76
2021/01/07 06:00:01;;;;;;;;;;;12.70;54.60;;;;;;2117963;28;19974;-75
2021/01/07 06:01:05;;;;;;;;;;;11.60;53.80;;;;;;2126920;27;19931;-75
2021/01/07 06:02:08;;;;;;;;;;;12.70;54.20;;;;;;2127118;27;19923;-77